Time;durP1;ratioP1;P1;durP2;ratioP2;P2;SDS_P1;SDS_P2;PMS_P1;PMS_P2;Temp;Humidity;BMP_temperature;BMP_pressure;BME280_temperature;BME280_humidity;BME280_pressure;Samples;Min_cycle;Max_cycle;Signal;HPM_P1;HPM_P2
2022/10/08 00:02:21;;;;;;;8.60;2.90;;;;;;;10.02;88.18;101545.25;5002928;28;20199;-70
2022/10/08 00:04:46;;;;;;;9.30;2.70;;;;;;;10.00;88.05;101541.78;4996425;28;20187;-72
2022/10/08 00:07:11;;;;;;;12.67;3.47;;;;;;;10.04;88.69;101534.28;5001298;28;20187;-72
2022/10/08 00:09:37;;;;;;;9.80;3.10;;;;;;;10.04;88.76;101536.84;4994560;28;20745;-71
2022/10/08 00:12:02;;;;;;;14.53;3.60;;;;;;;10.01;88.93;101531.59;4992353;28;20673;-72
2022/10/08 00:14:28;;;;;;;9.07;3.13;;;;;;;10.00;88.87;101537.50;4997672;28;20208;-72
2022/10/08 00:16:53;;;;;;;8.57;3.00;;;;;;;10.03;88.77;101523.94;5006303;28;20187;-72
2022/10/08 00:19:19;;;;;;;9.43;2.97;;;;;;;9.99;88.50;101525.56;4995344;28;20283;-72
2022/10/08 00:21:45;;;;;;;14.00;3.60;;;;;;;9.99;88.47;101535.78;4998139;28;20210;-71
2022/10/08 00:24:16;;;;;;;8.77;2.80;;;;;;;9.98;89.05;101528.06;4996281;28;20760;-71
2022/10/08 00:26:42;;;;;;;11.43;3.30;;;;;;;10.01;89.10;101523.03;4998547;28;20180;-72
2022/10/08 00:29:08;;;;;;;14.37;3.57;;;;;;;9.99;89.09;101524.66;5002398;28;20302;-72
2022/10/08 00:31:37;;;;;;;7.87;2.93;;;;;;;10.00;89.21;101523.88;4980502;28;20222;-72
2022/10/08 00:34:06;;;;;;;10.77;2.97;;;;;;;10.00;88.53;101519.59;5003346;28;20207;-71
2022/10/08 00:36:33;;;;;;;11.73;2.90;;;;;;;9.97;89.05;101518.66;4996329;28;20224;-72
2022/10/08 00:39:08;;;;;;;10.67;3.40;;;;;;;9.94;89.06;101516.88;4999482;28;20681;-71
2022/10/08 00:41:37;;;;;;;12.03;3.90;;;;;;;9.90;88.64;101509.06;4996608;28;20209;-71
2022/10/08 00:44:41;;;;;;;11.17;3.83;;;;;;;9.88;88.99;101505.56;4995307;28;20183;-71
2022/10/08 00:47:30;;;;;;;9.73;2.90;;;;;;;9.86;89.48;101497.81;4989565;28;20207;-71
2022/10/08 00:50:03;;;;;;;9.40;3.03;;;;;;;9.83;89.34;101494.31;4994097;28;20610;-71
2022/10/08 00:52:33;;;;;;;12.10;3.53;;;;;;;9.81;89.21;101490.84;4994208;28;20183;-71
2022/10/08 00:55:05;;;;;;;9.80;3.40;;;;;;;9.78;89.64;101489.06;4991920;28;20211;-71
2022/10/08 00:57:33;;;;;;;10.30;3.73;;;;;;;9.79;90.21;101485.69;5001241;28;20203;-70
2022/10/08 01:00:02;;;;;;;10.83;3.07;;;;;;;9.79;90.27;101483.13;4993602;28;20210;-71
2022/10/08 01:02:28;;;;;;;10.33;3.37;;;;;;;9.75;89.92;101480.41;5001710;28;20199;-71
2022/10/08 01:04:53;;;;;;;13.80;3.70;;;;;;;9.72;90.71;101470.94;4992295;28;20222;-70
2022/10/08 01:07:29;;;;;;;9.50;2.87;;;;;;;9.73;90.71;101472.66;5000622;28;20195;-71
2022/10/08 01:09:58;;;;;;;12.13;3.43;;;;;;;9.72;90.14;101475.19;4997894;28;20671;-72
2022/10/08 01:12:43;;;;;;;11.33;3.97;;;;;;;9.71;90.43;101466.66;4997665;28;20191;-70
2022/10/08 01:15:22;;;;;;;9.00;3.20;;;;;;;9.70;90.82;101471.72;5001505;28;20198;-71
2022/10/08 01:18:16;;;;;;;10.63;3.23;;;;;;;9.71;91.14;101470.88;4992571;28;20195;-71
2022/10/08 01:21:16;;;;;;;14.20;3.60;;;;;;;9.67;90.43;101458.84;4994704;28;20226;-71
2022/10/08 01:24:06;;;;;;;11.70;3.33;;;;;;;9.65;90.60;101453.66;4996802;28;20190;-72
2022/10/08 01:26:58;;;;;;;7.40;3.10;;;;;;;9.63;90.95;101452.75;4996523;28;20187;-72
2022/10/08 01:29:31;;;;;;;9.97;3.33;;;;;;;9.64;90.54;101456.19;5006594;28;20270;-72
2022/10/08 01:32:09;;;;;;;11.90;3.33;;;;;;;9.63;91.15;101452.75;4999329;28;20680;-71
2022/10/08 01:34:43;;;;;;;9.40;3.23;;;;;;;9.63;90.88;101446.78;4997144;28;20251;-71
2022/10/08 01:37:15;;;;;;;12.20;3.30;;;;;;;9.62;91.11;101450.13;4990930;28;20222;-70
2022/10/08 01:39:44;;;;;;;11.23;3.20;;;;;;;9.60;91.11;101464.56;4996713;28;20195;-71
2022/10/08 01:42:10;;;;;;;13.10;3.90;;;;;;;9.60;91.27;101446.66;4999463;28;20219;-71
2022/10/08 01:44:46;;;;;;;12.67;4.47;;;;;;;9.58;90.91;101444.06;4999072;28;20382;-71
2022/10/08 01:47:18;;;;;;;12.60;3.20;;;;;;;9.58;90.67;101438.94;5000578;28;20262;-72
2022/10/08 01:49:55;;;;;;;14.47;3.57;;;;;;;9.58;91.72;101445.75;4999206;28;20192;-71
2022/10/08 01:52:32;;;;;;;16.30;3.90;;;;;;;9.55;91.12;101438.84;4995347;28;20200;-71
2022/10/08 01:55:02;;;;;;;9.13;3.50;;;;;;;9.54;91.03;101441.34;4998525;28;20221;-71
2022/10/08 01:57:31;;;;;;;9.73;3.53;;;;;;;9.51;92.18;101437.00;4995619;28;20230;-71
2022/10/08 02:00:04;;;;;;;9.13;3.53;;;;;;;9.52;91.61;101438.75;4995660;28;20218;-71
2022/10/08 02:02:38;;;;;;;13.87;3.93;;;;;;;9.45;91.82;101428.28;4994270;28;20627;-70
2022/10/08 02:05:04;;;;;;;12.90;3.70;;;;;;;9.49;92.47;101425.84;4999042;28;20188;-72
2022/10/08 02:07:34;;;;;;;10.20;3.67;;;;;;;9.50;92.26;101425.03;4992251;28;20195;-72
2022/10/08 02:10:09;;;;;;;10.43;3.20;;;;;;;9.49;91.93;101430.97;4992084;28;20187;-70
2022/10/08 02:12:38;;;;;;;11.50;3.40;;;;;;;9.51;93.01;101426.78;4991984;28;20725;-71
2022/10/08 02:15:06;;;;;;;8.80;3.60;;;;;;;9.53;92.76;101427.69;4994113;28;20207;-72
2022/10/08 02:17:37;;;;;;;17.37;3.83;;;;;;;9.48;92.61;101431.78;4998586;28;20226;-71
2022/10/08 02:20:15;;;;;;;16.77;3.63;;;;;;;9.46;93.35;101417.22;4993086;28;20212;-71
2022/10/08 02:23:07;;;;;;;13.87;3.53;;;;;;;9.48;93.08;101426.69;4995691;28;20266;-71
2022/10/08 02:25:37;;;;;;;10.60;3.60;;;;;;;9.48;92.67;101413.00;5000436;28;20550;-72
2022/10/08 02:28:23;;;;;;;12.13;3.30;;;;;;;9.46;93.10;101412.13;4992940;28;20200;-72
2022/10/08 02:30:53;;;;;;;12.53;3.53;;;;;;;9.48;92.80;101413.00;4990840;28;20310;-71
2022/10/08 02:33:29;;;;;;;15.77;3.27;;;;;;;9.44;93.56;101419.72;4993785;28;20199;-71
2022/10/08 02:35:57;;;;;;;14.07;3.80;;;;;;;9.45;93.37;101410.38;4984444;28;20189;-70
2022/10/08 02:38:32;;;;;;;8.70;3.43;;;;;;;9.44;92.83;101412.06;4990024;28;20291;-72
2022/10/08 02:41:00;;;;;;;15.07;3.90;;;;;;;9.47;92.84;101424.06;4992081;28;20309;-71
2022/10/08 02:43:30;;;;;;;12.50;3.27;;;;;;;9.50;92.80;101419.06;5004001;28;20195;-71
2022/10/08 02:46:02;;;;;;;11.80;3.37;;;;;;;9.49;92.89;101418.19;4994149;28;20739;-72
2022/10/08 02:48:32;;;;;;;12.07;3.47;;;;;;;9.45;92.74;101421.44;5000848;28;20179;-71
2022/10/08 02:51:09;;;;;;;11.50;3.83;;;;;;;9.50;92.88;101419.91;4989690;28;20288;-72
2022/10/08 02:53:38;;;;;;;13.67;3.60;;;;;;;9.51;93.15;101429.34;5000898;28;20208;-71
2022/10/08 02:56:15;;;;;;;11.87;3.20;;;;;;;9.49;92.25;101436.06;5000007;28;20196;-70
2022/10/08 02:58:42;;;;;;;10.87;3.83;;;;;;;9.49;92.43;101430.13;4996257;28;20203;-72
2022/10/08 03:01:38;;;;;;;8.43;2.80;;;;;;;9.43;92.60;101425.66;4997788;28;20204;-71
2022/10/08 03:04:11;;;;;;;7.33;3.00;;;;;;;9.39;92.15;101423.81;4997997;28;20187;-72
2022/10/08 03:06:38;;;;;;;10.47;2.97;;;;;;;9.28;92.29;101429.38;4999659;28;20551;-72
2022/10/08 03:09:09;;;;;;;10.93;3.70;;;;;;;9.26;91.67;101434.44;4989568;28;20654;-71
2022/10/08 03:11:35;;;;;;;9.67;3.30;;;;;;;9.19;92.04;101431.63;5001664;28;20239;-71
2022/10/08 03:14:08;;;;;;;12.90;4.07;;;;;;;9.21;91.77;101432.56;4996407;28;20788;-71
2022/10/08 03:16:42;;;;;;;11.17;3.00;;;;;;;9.24;92.30;101438.66;4996954;28;20195;-71
2022/10/08 03:19:10;;;;;;;9.40;3.40;;;;;;;9.28;92.87;101440.50;5012794;28;20648;-72
2022/10/08 03:21:38;;;;;;;9.43;3.30;;;;;;;9.30;93.26;101438.84;4997173;28;20305;-70
2022/10/08 03:24:07;;;;;;;9.40;3.10;;;;;;;9.29;92.87;101429.44;4998905;28;20311;-71
2022/10/08 03:26:33;;;;;;;9.93;3.07;;;;;;;9.26;93.76;101431.03;4998057;28;20307;-71
2022/10/08 03:28:59;;;;;;;9.67;3.30;;;;;;;9.29;92.90;101431.13;4999435;28;20279;-71
2022/10/08 03:31:24;;;;;;;11.40;3.57;;;;;;;9.35;93.50;101431.34;4997275;28;20218;-71
2022/10/08 03:33:51;;;;;;;10.57;3.33;;;;;;;9.43;93.41;101429.88;5016912;28;20216;-71
2022/10/08 03:36:17;;;;;;;10.20;3.27;;;;;;;9.47;93.37;101429.19;4989946;28;20184;-71
2022/10/08 03:38:42;;;;;;;11.57;3.80;;;;;;;9.52;93.73;101430.19;5000023;28;20327;-71
2022/10/08 03:41:08;;;;;;;9.77;3.13;;;;;;;9.58;93.01;101428.72;5001647;28;20373;-71
2022/10/08 03:43:34;;;;;;;11.80;3.40;;;;;;;9.62;93.14;101428.00;5002312;28;20188;-72
2022/10/08 03:46:00;;;;;;;8.67;3.30;;;;;;;9.65;93.18;101425.53;5000038;28;20286;-72
2022/10/08 03:48:27;;;;;;;11.40;3.40;;;;;;;9.69;93.63;101421.38;4995991;28;20332;-71
2022/10/08 03:51:01;;;;;;;10.93;3.40;;;;;;;9.73;93.56;101424.09;4995735;28;20219;-72
2022/10/08 03:53:30;;;;;;;12.57;3.60;;;;;;;9.82;93.59;101428.63;4993994;28;20628;-71
2022/10/08 03:56:00;;;;;;;13.57;3.63;;;;;;;9.87;93.26;101421.97;5002043;28;20202;-71
2022/10/08 03:58:25;;;;;;;6.93;3.10;;;;;;;9.91;92.91;101424.66;4997643;28;20203;-71
2022/10/08 04:01:03;;;;;;;11.40;2.90;;;;;;;9.97;93.48;101422.31;4998865;28;20214;-72
2022/10/08 04:03:29;;;;;;;12.07;3.87;;;;;;;10.11;94.00;101415.97;4999274;28;20190;-72
2022/10/08 04:05:55;;;;;;;13.37;3.67;;;;;;;10.21;94.22;101414.53;4992436;28;20188;-72
2022/10/08 04:08:21;;;;;;;18.67;3.60;;;;;;;10.35;94.16;101415.81;5002665;28;20743;-72
2022/10/08 04:10:46;;;;;;;15.17;4.83;;;;;;;10.43;94.00;101422.03;4991424;28;20215;-71
2022/10/08 04:13:13;;;;;;;11.40;5.23;;;;;;;10.49;94.00;101423.06;4992694;28;20216;-71
2022/10/08 04:15:39;;;;;;;14.07;5.03;;;;;;;10.58;93.71;101422.47;5016574;28;20193;-71
2022/10/08 04:18:06;;;;;;;15.33;4.43;;;;;;;10.70;93.48;101422.81;5000621;28;20191;-70
2022/10/08 04:20:32;;;;;;;11.27;3.47;;;;;;;10.75;93.26;101416.13;4998156;28;20215;-70
2022/10/08 04:22:57;;;;;;;13.27;3.60;;;;;;;10.74;93.07;101419.50;4990383;28;20218;-72
2022/10/08 04:25:22;;;;;;;10.90;3.37;;;;;;;10.77;93.12;101420.47;5006175;28;20257;-71
2022/10/08 04:27:48;;;;;;;10.63;3.43;;;;;;;10.82;92.99;101426.56;4993836;28;20696;-71
2022/10/08 04:30:17;;;;;;;14.27;3.50;;;;;;;10.87;92.76;101422.44;5004576;28;20207;-71
2022/10/08 04:32:42;;;;;;;15.83;4.13;;;;;;;10.94;92.45;101426.03;4996082;28;20190;-71
2022/10/08 04:35:08;;;;;;;13.53;4.20;;;;;;;11.01;92.36;101423.69;5004998;28;20593;-71
2022/10/08 04:37:34;;;;;;;14.50;3.90;;;;;;;11.05;92.28;101414.38;5000666;28;20326;-71
2022/10/08 04:39:59;;;;;;;9.77;3.27;;;;;;;11.09;92.20;101418.75;4995513;28;20192;-70
2022/10/08 04:42:25;;;;;;;8.90;3.63;;;;;;;11.13;92.07;101421.47;4994827;28;20194;-71
2022/10/08 04:44:50;;;;;;;9.90;4.17;;;;;;;11.15;91.87;101421.50;5002067;28;20700;-72
2022/10/08 04:47:16;;;;;;;12.80;3.87;;;;;;;11.22;91.41;101415.69;4997448;28;20191;-73
2022/10/08 04:49:41;;;;;;;12.77;3.93;;;;;;;11.22;91.24;101424.25;4993636;28;20304;-71
2022/10/08 04:52:07;;;;;;;11.43;3.63;;;;;;;11.28;91.27;101420.97;5003680;28;20207;-72
2022/10/08 04:54:33;;;;;;;8.83;3.27;;;;;;;11.28;91.64;101420.97;4990813;28;20211;-72
2022/10/08 04:56:58;;;;;;;9.27;3.53;;;;;;;11.31;91.30;101426.19;4995924;28;20255;-72
2022/10/08 04:59:24;;;;;;;14.00;4.00;;;;;;;11.32;91.06;101426.22;4996424;28;20230;-71
2022/10/08 05:01:49;;;;;;;11.60;3.60;;;;;;;11.34;91.28;101418.59;4995954;28;20218;-72
2022/10/08 05:04:14;;;;;;;14.80;4.80;;;;;;;11.38;91.29;101425.53;4997055;28;20194;-72
2022/10/08 05:06:40;;;;;;;11.03;3.53;;;;;;;11.38;91.04;101425.53;4997770;28;20198;-71
2022/10/08 05:09:05;;;;;;;13.60;3.90;;;;;;;11.42;90.64;101437.56;5000544;28;20207;-71
2022/10/08 05:11:32;;;;;;;15.47;4.47;;;;;;;11.43;91.14;101429.06;5000717;28;20907;-72
2022/10/08 05:13:58;;;;;;;12.93;3.60;;;;;;;11.44;91.20;101424.00;5001232;28;20218;-72
2022/10/08 05:16:24;;;;;;;12.87;3.70;;;;;;;11.45;91.04;101424.84;4995786;28;20274;-72
2022/10/08 05:18:51;;;;;;;11.67;3.90;;;;;;;11.45;90.96;101425.72;4994365;28;20222;-71
2022/10/08 05:21:22;;;;;;;14.40;4.13;;;;;;;11.48;90.92;101428.34;4990431;28;20223;-71
2022/10/08 05:23:56;;;;;;;14.80;4.43;;;;;;;11.49;91.14;101430.09;4999798;28;20187;-72
2022/10/08 05:26:27;;;;;;;14.63;4.10;;;;;;;11.50;91.04;101434.38;4996004;28;20246;-72
2022/10/08 05:28:55;;;;;;;12.77;3.50;;;;;;;11.50;91.31;101433.50;4999522;28;20203;-70
2022/10/08 05:31:21;;;;;;;9.87;3.90;;;;;;;11.52;91.35;101431.88;4994644;28;20891;-72
2022/10/08 05:33:47;;;;;;;11.60;3.77;;;;;;;11.55;90.92;101445.63;4993119;28;20897;-71
2022/10/08 05:36:23;;;;;;;12.47;4.00;;;;;;;11.56;90.87;101449.91;4985315;28;20196;-70
2022/10/08 05:38:49;;;;;;;14.30;4.17;;;;;;;11.58;90.86;101455.97;4997783;28;20205;-72
2022/10/08 05:41:20;;;;;;;12.80;4.13;;;;;;;11.61;90.74;101444.97;4997127;28;20212;-72
2022/10/08 05:43:47;;;;;;;12.33;3.73;;;;;;;11.62;90.70;101450.09;4994461;28;20275;-71
2022/10/08 05:46:13;;;;;;;15.07;3.73;;;;;;;11.64;90.61;101445.00;4994695;28;20187;-71
2022/10/08 05:48:39;;;;;;;11.10;3.60;;;;;;;11.69;90.16;101448.56;4994784;28;20187;-72
2022/10/08 05:51:13;;;;;;;9.80;3.60;;;;;;;11.67;89.98;101463.94;4996305;28;20212;-72
2022/10/08 05:53:40;;;;;;;12.63;3.77;;;;;;;11.69;90.58;101464.81;4990733;28;20215;-71
2022/10/08 05:56:08;;;;;;;16.67;4.43;;;;;;;11.68;90.82;101457.09;4995189;28;20199;-71
2022/10/08 05:58:35;;;;;;;15.37;4.67;;;;;;;11.73;90.50;101460.63;5002180;28;20613;-71
2022/10/08 06:01:03;;;;;;;10.83;4.30;;;;;;;11.76;90.23;101470.97;4992436;28;20294;-71
2022/10/08 06:03:30;;;;;;;8.77;3.73;;;;;;;11.75;90.45;101467.53;4995555;28;20214;-71
2022/10/08 06:06:04;;;;;;;12.20;3.73;;;;;;;11.80;90.16;101476.19;4989504;28;20226;-71
2022/10/08 06:08:29;;;;;;;11.97;3.90;;;;;;;11.86;89.99;101472.94;5003501;28;20191;-71
2022/10/08 06:10:56;;;;;;;9.97;3.57;;;;;;;11.94;89.92;101479.13;4997147;28;20207;-71
2022/10/08 06:13:22;;;;;;;18.43;4.07;;;;;;;11.98;90.01;101489.47;4999447;28;20207;-71
2022/10/08 06:15:59;;;;;;;10.80;3.70;;;;;;;12.07;89.33;101478.59;4990269;28;20187;-70
2022/10/08 06:18:26;;;;;;;11.10;4.10;;;;;;;12.06;89.19;101480.28;5012232;28;20274;-71
2022/10/08 06:20:52;;;;;;;10.03;3.57;;;;;;;12.07;89.06;101474.31;4984421;28;20204;-71
2022/10/08 06:23:19;;;;;;;11.30;3.97;;;;;;;12.10;89.19;101483.78;5002678;28;20525;-71
2022/10/08 06:25:44;;;;;;;11.43;3.53;;;;;;;12.17;88.61;101491.66;4999317;28;20190;-70
2022/10/08 06:28:10;;;;;;;9.33;3.70;;;;;;;12.21;88.50;101496.03;4992089;28;20535;-71
2022/10/08 06:30:39;;;;;;;9.00;3.53;;;;;;;12.26;88.75;101503.84;5010268;28;20290;-71
2022/10/08 06:33:04;;;;;;;14.77;3.40;;;;;;;12.25;88.83;101508.09;4982368;28;20231;-70
2022/10/08 06:35:29;;;;;;;7.70;3.57;;;;;;;12.27;88.68;101503.91;4996895;28;20184;-70
2022/10/08 06:37:55;;;;;;;8.90;3.43;;;;;;;12.31;88.09;101495.41;4988227;28;20879;-71
2022/10/08 06:40:20;;;;;;;10.23;3.40;;;;;;;12.39;88.22;101511.00;4986430;28;20708;-71
2022/10/08 06:42:46;;;;;;;13.80;3.63;;;;;;;12.37;87.94;101505.84;5002087;28;20190;-71
2022/10/08 06:45:11;;;;;;;13.30;3.73;;;;;;;12.38;88.11;101502.44;4993659;28;20650;-71
2022/10/08 06:47:37;;;;;;;9.80;4.13;;;;;;;12.40;88.17;101505.03;4998150;28;20664;-71
2022/10/08 06:50:03;;;;;;;11.37;4.00;;;;;;;12.41;87.40;101501.63;4997374;28;20203;-71
2022/10/08 06:52:28;;;;;;;11.60;4.20;;;;;;;12.51;87.67;101490.72;4997196;28;20194;-71
2022/10/08 06:54:53;;;;;;;8.90;3.57;;;;;;;12.46;88.18;101508.59;5001614;28;20584;-70
2022/10/08 06:57:19;;;;;;;9.77;2.80;;;;;;;12.43;88.53;101517.91;5007181;28;20183;-71
2022/10/08 06:59:44;;;;;;;11.70;3.63;;;;;;;12.36;88.81;101518.63;4996185;28;20200;-71
2022/10/08 07:02:10;;;;;;;9.17;3.70;;;;;;;12.34;89.33;101523.72;4991489;28;20216;-72
2022/10/08 07:04:36;;;;;;;9.37;3.83;;;;;;;12.32;88.95;101516.81;4999544;28;20179;-72
2022/10/08 07:07:01;;;;;;;7.60;3.30;;;;;;;12.37;88.89;101526.38;4998118;28;20188;-72
2022/10/08 07:09:27;;;;;;;9.17;3.40;;;;;;;12.41;88.56;101528.19;4980001;28;20671;-70
2022/10/08 07:11:53;;;;;;;12.97;3.40;;;;;;;12.41;88.90;101545.28;4998235;28;20580;-73
2022/10/08 07:14:18;;;;;;;10.30;3.77;;;;;;;12.34;89.07;101548.53;4999311;28;20199;-73
2022/10/08 07:16:44;;;;;;;12.60;3.67;;;;;;;12.30;89.61;101545.03;4996912;28;20606;-74
2022/10/08 07:19:09;;;;;;;12.87;3.63;;;;;;;12.29;89.76;101556.16;4993747;28;20193;-72
2022/10/08 07:21:34;;;;;;;12.73;3.83;;;;;;;12.26;89.98;101550.06;4998752;28;20214;-73
2022/10/08 07:24:00;;;;;;;9.67;3.50;;;;;;;12.23;90.29;101556.00;5002482;28;20186;-71
2022/10/08 07:26:28;;;;;;;10.10;3.67;;;;;;;12.23;90.06;101550.00;4995859;28;20191;-73
2022/10/08 07:29:00;;;;;;;8.93;3.67;;;;;;;12.28;90.39;101559.56;5001752;28;20520;-72
2022/10/08 07:31:28;;;;;;;12.60;4.20;;;;;;;12.49;90.29;101564.31;5000984;28;20294;-72
2022/10/08 07:34:03;;;;;;;12.23;3.90;;;;;;;12.72;89.18;101558.84;4994170;28;20282;-72
2022/10/08 07:36:29;;;;;;;10.37;4.13;;;;;;;12.80;88.28;101559.91;4994825;28;20181;-71
2022/10/08 07:38:56;;;;;;;8.10;3.73;;;;;;;13.04;87.66;101571.56;4991164;28;20702;-72
2022/10/08 07:41:24;;;;;;;7.97;3.27;;;;;;;13.38;86.43;101568.84;5000084;28;20237;-72
2022/10/08 07:43:51;;;;;;;9.60;3.63;;;;;;;13.35;85.93;101573.94;4996961;28;20198;-71
2022/10/08 07:46:16;;;;;;;9.83;4.13;;;;;;;13.80;85.19;101572.22;5003702;28;20569;-72
2022/10/08 07:48:42;;;;;;;11.30;4.10;;;;;;;13.85;83.78;101566.31;4994217;28;20189;-73
2022/10/08 07:51:15;;;;;;;10.07;4.40;;;;;;;14.18;83.15;101560.88;4995077;28;20207;-72
2022/10/08 07:53:41;;;;;;;7.97;3.87;;;;;;;13.92;82.83;101572.44;4999924;28;20599;-72
2022/10/08 07:56:08;;;;;;;10.87;4.00;;;;;;;14.20;83.14;101566.91;4996709;28;20278;-73
2022/10/08 07:58:35;;;;;;;6.97;3.63;;;;;;;14.33;82.17;101571.47;5001892;28;20190;-73
2022/10/08 08:01:02;;;;;;;8.73;3.50;;;;;;;14.78;81.42;101577.31;4990622;28;20756;-73
2022/10/08 08:03:28;;;;;;;9.57;3.63;;;;;;;15.02;79.41;101580.22;5003558;28;20187;-73
2022/10/08 08:06:04;;;;;;;8.70;3.53;;;;;;;15.04;78.89;101578.50;4998775;28;20206;-73
2022/10/08 08:08:30;;;;;;;5.40;3.13;;;;;;;15.16;79.12;101578.69;4988902;28;20279;-74
2022/10/08 08:11:00;;;;;;;10.60;3.80;;;;;;;15.48;76.65;101579.97;4995566;28;20309;-73
2022/10/08 08:13:26;;;;;;;9.77;3.80;;;;;;;15.56;76.86;101584.34;4993452;28;20208;-71
2022/10/08 08:16:07;;;;;;;8.40;3.23;;;;;;;15.40;77.62;101591.91;4999489;28;20183;-71
2022/10/08 08:18:36;;;;;;;10.37;3.80;;;;;;;15.39;77.09;101597.91;4989555;28;20576;-71
2022/10/08 08:21:04;;;;;;;12.53;3.53;;;;;;;15.48;76.51;101598.03;5004120;28;20216;-73
2022/10/08 08:23:32;;;;;;;11.17;4.53;;;;;;;16.09;76.15;101605.56;4990633;28;20225;-75
2022/10/08 08:26:03;;;;;;;7.80;3.27;;;;;;;16.46;73.04;101595.59;4982363;28;20184;-73
2022/10/08 08:28:29;;;;;;;10.40;3.47;;;;;;;16.05;73.63;101608.97;4997134;28;20556;-73
2022/10/08 08:31:05;;;;;;;9.17;3.70;;;;;;;15.61;76.33;101615.41;4998400;28;20203;-74
2022/10/08 08:33:30;;;;;;;9.90;4.27;;;;;;;16.03;75.52;101623.59;4996843;28;22231;-73
2022/10/08 08:35:56;;;;;;;7.53;3.20;;;;;;;16.66;72.61;101619.88;4990091;28;20196;-74
2022/10/08 08:38:21;;;;;;;8.03;3.00;;;;;;;16.65;72.31;101625.91;4994636;28;20262;-74
2022/10/08 08:40:47;;;;;;;8.60;3.13;;;;;;;16.80;71.41;101619.97;4989929;28;20278;-74
2022/10/08 08:43:12;;;;;;;9.57;2.90;;;;;;;17.42;69.04;101626.38;4997247;28;20188;-73
2022/10/08 08:45:40;;;;;;;5.80;2.33;;;;;;;17.83;68.15;101619.59;4996621;28;20548;-74
2022/10/08 08:48:11;;;;;;;7.60;2.40;;;;;;;18.09;67.56;101621.38;4999177;28;20184;-72
2022/10/08 08:50:40;;;;;;;10.52;2.63;;;;;;;18.16;65.92;101619.66;4990491;28;20212;-73
2022/10/08 08:53:09;;;;;;;8.18;2.38;;;;;;;17.89;65.30;101627.38;5000356;28;20187;-74
2022/10/08 08:55:40;;;;;;;7.20;2.25;;;;;;;18.98;62.73;101621.38;5003413;28;20262;-74
2022/10/08 08:58:34;;;;;;;8.18;3.17;;;;;;;20.16;58.81;101617.38;5006505;28;20675;-73
2022/10/08 09:01:16;;;;;;;6.20;2.55;;;;;;;22.16;52.38;101602.97;5000029;28;20215;-73
2022/10/08 09:03:51;;;;;;;4.70;2.08;;;;;;;23.07;49.76;101608.31;4999239;28;20242;-74
2022/10/08 09:06:21;;;;;;;6.22;2.40;;;;;;;24.35;46.10;101601.13;5005180;28;20194;-74
2022/10/08 09:08:52;;;;;;;5.40;2.05;;;;;;;24.06;46.31;101598.38;4987482;28;20243;-74
2022/10/08 09:11:20;;;;;;;5.43;2.30;;;;;;;24.59;44.97;101599.66;4991575;28;20238;-75
2022/10/08 09:14:16;;;;;;;6.00;2.45;;;;;;;24.81;43.79;101595.63;4990447;28;20212;-75
2022/10/08 09:16:41;;;;;;;7.30;2.28;;;;;;;24.79;44.45;101605.28;4996326;28;20196;-74
2022/10/08 09:19:08;;;;;;;7.35;2.45;;;;;;;25.59;41.01;101601.22;4994773;28;20233;-75
2022/10/08 09:21:33;;;;;;;6.93;2.10;;;;;;;23.74;46.42;101615.66;4995212;28;20196;-75
2022/10/08 09:24:00;;;;;;;7.93;2.03;;;;;;;23.49;47.29;101614.47;4998440;28;20619;-74
2022/10/08 09:26:29;;;;;;;8.73;2.88;;;;;;;23.20;46.43;101616.84;4989703;28;20653;-75
2022/10/08 09:29:03;;;;;;;7.25;2.30;;;;;;;21.37;51.49;101633.63;5063256;28;20556;-74
2022/10/08 09:31:43;;;;;;;7.57;2.17;;;;;;;20.13;54.58;101643.44;5050852;28;20233;-73
2022/10/08 09:34:08;;;;;;;6.03;2.33;;;;;;;19.86;56.25;101643.56;5051761;28;20197;-74
2022/10/08 09:36:35;;;;;;;7.43;2.60;;;;;;;20.75;53.12;101639.47;5052906;28;20262;-75
2022/10/08 09:39:05;;;;;;;8.05;2.25;;;;;;;26.42;41.64;101607.31;5051720;28;20190;-74
2022/10/08 09:41:30;;;;;;;6.90;2.28;;;;;;;25.08;42.28;101619.31;5047638;28;20560;-75
2022/10/08 09:44:10;;;;;;;9.05;2.58;;;;;;;21.87;50.17;101632.09;5057270;28;20192;-74
2022/10/08 09:46:36;;;;;;;6.10;2.10;;;;;;;19.79;54.61;101641.84;5042849;28;20433;-73
2022/10/08 09:49:20;;;;;;;8.93;2.27;;;;;;;24.07;45.60;101626.25;5054122;28;20204;-74
2022/10/08 09:51:48;;;;;;;9.98;2.25;;;;;;;27.30;38.32;101612.09;5049339;28;20303;-75
2022/10/08 09:54:20;;;;;;;4.80;2.03;;;;;;;28.54;35.42;101611.56;5055171;28;20190;-75
2022/10/08 09:56:57;;;;;;;3.20;1.52;;;;;;;26.68;36.89;101629.25;5053466;28;20229;-75
2022/10/08 09:59:27;;;;;;;5.38;1.90;;;;;;;27.57;35.72;101626.00;5052341;28;20196;-75
2022/10/08 10:01:52;;;;;;;4.78;1.70;;;;;;;24.57;41.52;101633.75;5052964;28;20217;-73
2022/10/08 10:04:28;;;;;;;6.20;1.95;;;;;;;26.64;38.18;101618.88;5056140;28;20190;-74
2022/10/08 10:06:54;;;;;;;6.07;2.38;;;;;;;29.10;34.01;101617.88;5052428;28;21347;-75
2022/10/08 10:09:55;;;;;;;8.55;1.80;;;;;;;30.46;31.17;101617.56;5053783;28;20185;-75
2022/10/08 10:12:26;;;;;;;6.28;2.00;;;;;;;31.08;30.22;101622.28;5055482;28;20611;-73
2022/10/08 10:15:16;;;;;;;2.80;1.65;;;;;;;29.65;32.35;101619.75;5051717;28;20308;-74
2022/10/08 10:17:54;;;;;;;5.43;2.00;;;;;;;28.83;33.28;101628.78;5055656;28;20209;-72
2022/10/08 10:20:32;;;;;;;5.88;2.30;;;;;;;29.44;33.16;101625.16;5051321;28;20227;-72
2022/10/08 10:23:09;;;;;;;6.10;2.15;;;;;;;30.57;30.47;101614.38;5054539;28;20557;-72
2022/10/08 10:25:40;;;;;;;5.82;2.03;;;;;;;33.09;27.14;101614.19;5051715;28;20197;-72
2022/10/08 10:28:28;;;;;;;4.53;1.88;;;;;;;32.89;26.39;101619.88;5041986;28;20769;-70
2022/10/08 10:31:02;;;;;;;6.63;1.90;;;;;;;32.62;26.18;101618.84;5037696;28;20246;-72
2022/10/08 10:33:36;;;;;;;4.68;1.88;;;;;;;33.59;25.40;101613.69;5048477;28;20204;-73
2022/10/08 10:36:12;;;;;;;5.90;1.90;;;;;;;33.10;25.15;101621.19;5049845;28;20281;-72
2022/10/08 10:39:04;;;;;;;5.25;1.70;;;;;;;34.65;24.40;101606.59;5047161;28;20578;-73
2022/10/08 10:42:14;;;;;;;4.32;1.85;;;;;;;33.54;25.52;101606.03;5037138;28;20240;-72
2022/10/08 10:45:15;;;;;;;5.00;1.60;;;;;;;34.48;24.52;101606.03;5036766;28;20210;-72
2022/10/08 10:47:40;;;;;;;2.97;1.70;;;;;;;35.32;23.50;101602.81;5038627;28;20610;-73
2022/10/08 10:50:13;;;;;;;3.88;1.70;;;;;;;37.19;22.40;101592.94;5035709;28;20194;-71
2022/10/08 10:53:24;;;;;;;4.53;1.92;;;;;;;35.32;22.98;101602.81;5040871;28;20628;-71
2022/10/08 10:56:09;;;;;;;3.53;1.50;;;;;;;35.55;22.88;101602.84;5041336;28;20189;-72
2022/10/08 10:58:53;;;;;;;4.55;1.88;;;;;;;35.48;22.38;101616.72;5029938;28;20194;-71
2022/10/08 11:01:57;;;;;;;4.22;1.70;;;;;;;36.25;22.29;101609.22;5031427;28;20210;-71
2022/10/08 11:05:13;;;;;;;4.30;1.50;;;;;;;29.52;28.59;101631.78;5038273;28;20205;-72
2022/10/08 11:08:09;;;;;;;3.45;1.55;;;;;;;29.13;30.53;101638.00;5029524;28;20209;-72
2022/10/08 11:10:54;;;;;;;3.75;1.60;;;;;;;25.22;36.03;101647.75;5028766;28;20313;-72
2022/10/08 11:13:40;;;;;;;6.70;1.67;;;;;;;27.70;31.46;101629.88;5038716;28;20305;-72
2022/10/08 11:16:05;;;;;;;5.68;1.40;;;;;;;23.85;37.40;101661.63;5040619;28;20196;-73
2022/10/08 11:18:33;;;;;;;4.85;1.60;;;;;;;22.77;40.53;101652.44;5041361;28;20278;-72
2022/10/08 11:21:11;;;;;;;4.00;1.43;;;;;;;22.34;41.92;101665.34;5041134;28;20575;-72
2022/10/08 11:23:49;;;;;;;8.63;1.45;;;;;;;25.64;36.11;101647.44;5040354;28;20197;-74
2022/10/08 11:26:24;;;;;;;7.07;1.60;;;;;;;29.70;29.56;101640.69;5039626;28;20198;-74
2022/10/08 11:29:11;;;;;;;4.72;1.55;;;;;;;31.92;27.01;101630.91;5040732;28;20208;-72
2022/10/08 11:31:47;;;;;;;3.42;1.60;;;;;;;32.07;26.90;101632.69;5037607;28;20245;-72
2022/10/08 11:34:33;;;;;;;8.10;1.67;;;;;;;24.58;36.63;101664.28;5041685;28;20293;-70
2022/10/08 11:37:02;;;;;;;5.53;1.65;;;;;;;21.97;42.97;101665.00;5037786;28;20190;-73
2022/10/08 11:39:35;;;;;;;5.63;1.43;;;;;;;21.27;44.13;101677.16;5040836;28;20189;-72
2022/10/08 11:42:16;;;;;;;4.13;1.20;;;;;;;20.62;45.14;101686.41;5040255;28;20214;-71
2022/10/08 11:44:42;;;;;;;2.47;1.03;;;;;;;19.97;47.56;101707.66;5031537;28;20191;-74